Time;durP1;ratioP1;P1;durP2;ratioP2;P2;SDS_P1;SDS_P2;PMS_P1;PMS_P2;Temp;Humidity;BMP_temperature;BMP_pressure;BME280_temperature;BME280_humidity;BME280_pressure;Samples;Min_cycle;Max_cycle;Signal;HPM_P1;HPM_P2
2021/12/05 00:23:14;;;;;;;0.35;0.10;;;;;;;2.83;100.00;99159.09;5081903;28;20117;-50
2021/12/05 00:25:44;;;;;;;3.60;0.40;;;;;;;2.79;100.00;99155.22;5083469;28;20064;-50
2021/12/05 01:13:29;;;;;;;0.75;0.32;;;;;;;2.50;100.00;99174.16;5045987;28;20532;-50
2021/12/05 01:15:59;;;;;;;1.70;0.38;;;;;;;2.50;100.00;99174.16;5081004;28;20036;-50
2021/12/05 01:18:25;;;;;;;0.40;0.00;;;;;;;2.55;100.00;99183.13;5079729;28;20392;-50
2021/12/05 01:21:10;;;;;;;0.45;0.17;;;;;;;2.64;100.00;99186.53;5086513;28;20115;-49
2021/12/05 01:23:52;;;;;;;3.05;0.10;;;;;;;2.62;100.00;99180.63;5085006;28;21083;-47
2021/12/05 01:26:23;;;;;;;1.17;0.05;;;;;;;2.63;100.00;99177.03;5077913;28;20476;-48
2021/12/05 01:31:30;;;;;;;0.60;0.10;;;;;;;2.68;100.00;99185.19;5081137;28;20468;-45
2021/12/05 01:57:55;;;;;;;0.25;0.15;;;;;;;2.82;100.00;99204.59;5079198;28;20048;-49
2021/12/05 02:43:29;;;;;;;;;;;;;;;2.99;100.00;99252.44;5042510;28;20432;-51
2021/12/05 02:45:59;;;;;;;2.72;0.20;;;;;;;2.94;100.00;99266.03;5085856;28;19963;-45
2021/12/05 02:48:27;;;;;;;3.42;0.13;;;;;;;2.86;100.00;99262.66;5081677;28;20102;-47
2021/12/05 02:50:52;;;;;;;1.05;0.00;;;;;;;2.81;100.00;99266.63;5084736;28;20028;-45
2021/12/05 02:53:21;;;;;;;0.20;0.00;;;;;;;2.86;100.00;99270.50;5067082;28;20031;-45
2021/12/05 02:55:48;;;;;;;0.00;0.00;;;;;;;2.88;100.00;99264.13;5085890;28;20285;-47
2021/12/05 02:58:44;;;;;;;1.30;0.10;;;;;;;2.84;100.00;99266.25;5063545;28;20170;-52
2021/12/05 03:01:32;;;;;;;0.68;0.08;;;;;;;2.84;100.00;99265.47;5078093;28;20554;-45
2021/12/05 03:03:53;;;;;;;0.88;0.05;;;;;;;2.84;100.00;99281.16;5078504;28;20513;-46
2021/12/05 03:06:25;;;;;;;0.22;0.00;;;;;;;2.83;100.00;99276.91;5080975;28;20031;-50
2021/12/05 03:08:55;;;;;;;0.00;0.00;;;;;;;2.87;100.00;99285.25;5085105;28;20372;-49
2021/12/05 03:11:22;;;;;;;1.05;0.00;;;;;;;2.82;100.00;99277.91;5084847;28;20147;-49
2021/12/05 03:13:48;;;;;;;0.47;0.20;;;;;;;2.86;100.00;99286.22;5085315;28;20036;-48
2021/12/05 03:16:15;;;;;;;2.05;0.08;;;;;;;2.86;100.00;99280.97;5082134;28;20024;-53
2021/12/05 03:18:41;;;;;;;0.25;0.05;;;;;;;2.84;100.00;99291.63;5081507;28;20424;-48
2021/12/05 03:21:08;;;;;;;0.65;0.00;;;;;;;2.82;100.00;99298.84;5084597;28;20036;-49
2021/12/05 03:23:36;;;;;;;2.10;0.63;;;;;;;2.89;100.00;99291.09;5081238;28;20024;-46
2021/12/05 03:26:05;;;;;;;0.00;0.00;;;;;;;2.92;100.00;99283.75;5076117;28;20110;-46
2021/12/05 03:28:30;;;;;;;4.18;0.13;;;;;;;2.90;100.00;99288.31;5081931;28;20028;-46
2021/12/05 03:30:56;;;;;;;0.32;0.03;;;;;;;2.91;100.00;99282.09;5081491;28;20028;-49
2021/12/05 03:33:21;;;;;;;0.47;0.00;;;;;;;2.91;100.00;99292.56;5078173;28;20500;-48
2021/12/05 03:35:46;;;;;;;0.15;0.00;;;;;;;2.92;100.00;99296.84;5081701;28;20077;-45
2021/12/05 03:38:12;;;;;;;0.88;0.63;;;;;;;2.89;100.00;99304.19;5082037;28;20502;-48
2021/12/05 03:40:37;;;;;;;0.45;0.00;;;;;;;2.90;100.00;99305.84;5081400;28;20032;-48
2021/12/05 03:43:07;;;;;;;1.95;0.00;;;;;;;2.89;100.00;99309.44;5082044;28;20040;-48
2021/12/05 03:45:41;;;;;;;2.15;0.00;;;;;;;2.86;100.00;99315.81;5081260;28;20480;-46
2021/12/05 03:48:07;;;;;;;0.32;0.00;;;;;;;2.88;100.00;99328.75;5082697;28;20038;-48
2021/12/05 03:50:35;;;;;;;0.00;0.00;;;;;;;2.93;100.00;99334.31;5083720;28;20040;-48
2021/12/05 03:53:01;;;;;;;0.10;0.00;;;;;;;2.87;100.00;99333.19;5084278;28;20036;-47
2021/12/05 03:55:27;;;;;;;0.00;0.00;;;;;;;2.86;100.00;99328.09;5084435;28;20449;-48
2021/12/05 03:57:52;;;;;;;0.45;0.00;;;;;;;2.86;100.00;99336.75;5085101;28;20381;-50
2021/12/05 04:00:26;;;;;;;1.23;0.00;;;;;;;2.89;100.00;99322.53;5087111;28;20032;-47
2021/12/05 04:02:55;;;;;;;0.98;0.10;;;;;;;2.86;100.00;99320.25;5084249;28;20121;-50
2021/12/05 04:05:22;;;;;;;0.10;0.10;;;;;;;2.87;100.00;99332.38;5074709;28;20040;-45
2021/12/05 04:07:48;;;;;;;1.38;0.25;;;;;;;2.90;100.00;99332.03;5081340;28;20111;-44
2021/12/05 04:10:14;;;;;;;0.82;0.73;;;;;;;2.88;100.00;99331.38;5078732;28;20077;-52
2021/12/05 04:12:39;;;;;;;0.00;0.00;;;;;;;2.87;100.00;99338.41;5083475;28;20032;-46
2021/12/05 04:15:06;;;;;;;0.32;0.05;;;;;;;2.82;100.00;99336.31;5084201;28;20586;-49
2021/12/05 04:17:32;;;;;;;0.45;0.00;;;;;;;2.84;100.00;99339.56;5084721;28;20137;-49
2021/12/05 04:19:57;;;;;;;0.00;0.00;;;;;;;2.89;100.00;99340.84;5081148;28;20121;-50
2021/12/05 04:22:24;;;;;;;3.42;0.00;;;;;;;2.94;100.00;99349.00;5083853;28;20126;-48
2021/12/05 04:24:51;;;;;;;1.98;0.00;;;;;;;2.90;100.00;99345.13;5061935;28;20059;-47
2021/12/05 04:27:16;;;;;;;2.30;0.00;;;;;;;2.84;100.00;99354.47;5076645;28;20031;-47
2021/12/05 04:29:42;;;;;;;0.38;0.00;;;;;;;2.85;100.00;99353.47;5082537;28;20040;-48
2021/12/05 04:32:08;;;;;;;1.30;0.17;;;;;;;2.95;100.00;99369.00;5087810;28;20041;-49
2021/12/05 04:34:33;;;;;;;0.10;0.08;;;;;;;3.02;100.00;99369.94;5088378;28;20035;-49
2021/12/05 04:36:59;;;;;;;0.28;0.00;;;;;;;3.05;100.00;99374.84;5087653;28;20073;-48
2021/12/05 04:39:26;;;;;;;0.70;0.28;;;;;;;3.01;100.00;99370.94;5088440;28;20519;-46
2021/12/05 04:41:53;;;;;;;0.10;0.10;;;;;;;3.03;100.00;99368.97;5091180;28;20088;-49
2021/12/05 04:44:20;;;;;;;1.08;0.00;;;;;;;3.06;100.00;99384.34;5084794;28;20070;-49
2021/12/05 04:46:47;;;;;;;0.20;0.00;;;;;;;3.05;100.00;99380.91;5086060;28;20047;-49
2021/12/05 04:49:13;;;;;;;0.10;0.00;;;;;;;3.06;100.00;99389.56;5059900;28;20039;-51
2021/12/05 04:51:41;;;;;;;0.90;0.00;;;;;;;3.06;100.00;99392.19;5082483;28;20055;-49
2021/12/05 04:54:10;;;;;;;1.83;0.75;;;;;;;3.10;100.00;99400.50;5063195;28;20024;-49
2021/12/05 04:56:36;;;;;;;0.35;0.03;;;;;;;3.13;100.00;99394.97;5084310;28;20027;-51
2021/12/05 04:59:12;;;;;;;0.00;0.00;;;;;;;3.16;100.00;99400.66;5086897;28;20032;-47
2021/12/05 05:01:38;;;;;;;0.40;0.00;;;;;;;3.21;100.00;99392.31;5087276;28;20036;-47
2021/12/05 05:04:08;;;;;;;4.10;0.65;;;;;;;3.19;100.00;99395.09;5086832;28;20518;-48
2021/12/05 05:06:34;;;;;;;1.05;0.00;;;;;;;3.16;100.00;99402.47;5085135;28;20020;-51
2021/12/05 05:08:59;;;;;;;0.00;0.00;;;;;;;3.13;100.00;99401.00;5086163;28;20427;-50
2021/12/05 05:11:26;;;;;;;0.30;0.30;;;;;;;3.13;100.00;99408.06;5082048;28;20113;-48
2021/12/05 05:13:52;;;;;;;0.85;0.80;;;;;;;3.10;100.00;99411.84;5085558;28;20409;-50
2021/12/05 05:16:20;;;;;;;0.25;0.00;;;;;;;3.12;100.00;99420.31;5086017;28;20036;-53
2021/12/05 05:18:50;;;;;;;1.15;0.08;;;;;;;3.15;100.00;99414.75;5086723;28;20039;-49
2021/12/05 05:21:35;;;;;;;1.88;0.10;;;;;;;3.15;100.00;99414.75;5085121;28;20067;-46
2021/12/05 05:24:28;;;;;;;0.00;0.00;;;;;;;3.17;100.00;99419.81;5086203;28;20067;-47
2021/12/05 05:50:35;;;;;;;0.00;0.00;;;;;;;3.02;100.00;99458.97;5081665;28;20461;-48
2021/12/05 05:53:01;;;;;;;1.17;0.00;;;;;;;3.01;100.00;99460.78;5080475;28;20032;-48
2021/12/05 05:55:26;;;;;;;0.05;0.00;;;;;;;3.03;100.00;99473.72;5078767;28;20036;-48
2021/12/05 06:00:35;;;;;;;0.00;0.00;;;;;;;3.08;100.00;99468.00;5074769;28;20047;-51
2021/12/05 06:03:21;;;;;;;0.25;0.00;;;;;;;3.10;100.00;99473.84;5079262;28;20059;-53
2021/12/05 06:06:14;;;;;;;0.00;0.00;;;;;;;3.05;100.00;99475.19;5072276;28;20047;-46
2021/12/05 06:08:41;;;;;;;0.05;0.00;;;;;;;3.05;100.00;99472.56;5073670;28;20142;-49
2021/12/05 06:11:10;;;;;;;0.85;0.10;;;;;;;3.10;100.00;99513.13;5086354;28;20036;-56
2021/12/05 06:13:36;;;;;;;0.50;0.05;;;;;;;3.17;100.00;99475.63;5067455;28;20071;-53
2021/12/05 06:16:02;;;;;;;0.00;0.00;;;;;;;3.18;100.00;99476.47;5083153;28;20051;-47
2021/12/05 06:18:29;;;;;;;0.40;0.10;;;;;;;3.19;100.00;99484.16;5082893;28;20384;-47
2021/12/05 06:20:55;;;;;;;0.00;0.00;;;;;;;3.14;100.00;99493.50;5093777;28;20031;-47
2021/12/05 06:23:21;;;;;;;0.00;0.00;;;;;;;3.09;100.00;99499.22;5080828;28;20111;-48
2021/12/05 06:25:49;;;;;;;0.25;0.25;;;;;;;3.08;100.00;99504.66;5084503;28;20044;-51
2021/12/05 06:28:17;;;;;;;0.30;0.00;;;;;;;3.13;100.00;99503.16;5073572;28;20122;-47
2021/12/05 06:30:53;;;;;;;0.55;0.08;;;;;;;3.12;100.00;99500.69;5066658;28;20041;-46
2021/12/05 06:41:37;;;;;;;0.10;0.10;;;;;;;3.14;100.00;99512.66;5085193;28;20035;-49
2021/12/05 06:46:38;;;;;;;0.00;0.00;;;;;;;3.16;100.00;99515.94;5083154;28;20050;-52
2021/12/05 06:49:03;;;;;;;0.20;0.00;;;;;;;3.15;100.00;99514.31;5082814;28;20816;-49
2021/12/05 06:51:30;;;;;;;0.00;0.00;;;;;;;3.12;100.00;99517.22;5082480;28;20059;-46
2021/12/05 06:53:58;;;;;;;2.85;0.32;;;;;;;3.11;100.00;99509.56;5082116;28;20024;-46
2021/12/05 06:56:24;;;;;;;1.15;0.00;;;;;;;3.12;100.00;99524.28;5081709;28;20412;-52
2021/12/05 06:58:50;;;;;;;0.95;0.10;;;;;;;3.11;100.00;99527.88;5079479;28;20459;-53
2021/12/05 07:01:16;;;;;;;1.45;0.00;;;;;;;3.15;100.00;99532.63;5083973;28;20294;-48
2021/12/05 07:03:45;;;;;;;1.55;0.13;;;;;;;3.10;100.00;99531.47;5077654;28;20039;-53
2021/12/05 07:06:19;;;;;;;0.10;0.00;;;;;;;2.95;100.00;99547.88;5080023;28;20032;-50
2021/12/05 07:08:45;;;;;;;0.20;0.20;;;;;;;2.87;100.00;99557.53;5077301;28;20097;-51
2021/12/05 07:11:27;;;;;;;0.15;0.00;;;;;;;2.80;100.00;99563.41;5079726;28;20039;-54
2021/12/05 07:14:27;;;;;;;0.10;0.03;;;;;;;2.82;100.00;99537.88;5082505;28;20138;-48
2021/12/05 07:19:35;;;;;;;0.35;0.00;;;;;;;2.66;100.00;99571.09;5083470;28;20020;-55
2021/12/05 07:22:13;;;;;;;2.63;0.00;;;;;;;2.64;100.00;99568.66;5063498;28;20547;-51
2021/12/05 07:40:45;;;;;;;0.20;0.10;;;;;;;2.62;100.00;99620.31;5070547;28;20149;-56
2021/12/05 07:43:13;;;;;;;2.00;0.00;;;;;;;2.61;100.00;99626.56;5078333;28;20488;-58
2021/12/05 07:45:44;;;;;;;0.32;0.00;;;;;;;2.69;100.00;99626.56;5080945;28;20096;-54
2021/12/05 07:48:15;;;;;;;0.05;0.00;;;;;;;2.79;100.00;99627.25;5081933;28;20028;-49
2021/12/05 07:50:53;;;;;;;0.00;0.00;;;;;;;2.80;100.00;99635.91;5079636;28;20032;-54
2021/12/05 07:53:27;;;;;;;0.00;0.00;;;;;;;2.88;100.00;99649.00;5084880;28;20477;-49
2021/12/05 07:55:56;;;;;;;0.30;0.00;;;;;;;2.94;100.00;99643.09;5083881;28;20477;-49
2021/12/05 07:58:44;;;;;;;0.28;0.00;;;;;;;2.91;100.00;99648.66;5084395;28;20492;-50
2021/12/05 08:14:38;;;;;;;0.03;0.03;;;;;;;3.05;100.00;99678.66;5062583;28;20400;-52
2021/12/05 08:17:06;;;;;;;1.70;0.10;;;;;;;3.12;100.00;99682.25;5089106;28;20070;-53
2021/12/05 08:19:31;;;;;;;1.13;0.03;;;;;;;3.15;100.00;99675.88;5086696;28;20064;-50
2021/12/05 08:21:57;;;;;;;0.00;0.00;;;;;;;3.11;100.00;99674.56;5086076;28;20499;-49
2021/12/05 08:24:31;;;;;;;0.30;0.05;;;;;;;3.10;100.00;99702.56;5083705;28;20028;-56
2021/12/05 08:26:56;;;;;;;0.10;0.10;;;;;;;3.09;100.00;99693.06;5080242;28;20465;-51
2021/12/05 08:29:34;;;;;;;1.10;0.10;;;;;;;3.13;100.00;99709.28;5086448;28;20032;-54
2021/12/05 08:34:48;;;;;;;0.25;0.25;;;;;;;3.23;100.00;99707.34;5085887;28;20466;-54
2021/12/05 10:09:22;;;;;;;6.72;0.60;;;;;;;3.92;100.00;99876.50;5068103;28;20118;-52
2021/12/05 10:12:09;;;;;;;1.73;0.15;;;;;;;3.96;100.00;99879.59;5076616;28;20055;-53
2021/12/05 10:20:41;;;;;;;0.68;0.15;;;;;;;4.10;100.00;99884.19;5065877;28;20050;-54
2021/12/05 10:37:21;;;;;;;1.52;0.10;;;;;;;4.04;100.00;99913.69;5080739;28;20038;-55
2021/12/05 10:40:00;;;;;;;6.40;0.10;;;;;;;3.98;100.00;99913.56;5056305;28;20173;-55
2021/12/05 10:42:42;;;;;;;3.17;0.63;;;;;;;3.95;100.00;99917.31;5075416;28;20028;-54
2021/12/05 10:45:30;;;;;;;2.15;0.77;;;;;;;4.00;100.00;99915.03;5072675;28;20097;-56
2021/12/05 10:47:57;;;;;;;1.00;0.10;;;;;;;4.11;100.00;99919.13;5056748;28;20036;-55
2021/12/05 10:50:29;;;;;;;0.10;0.10;;;;;;;4.17;100.00;99912.41;5076139;28;20028;-55
2021/12/05 10:53:16;;;;;;;0.10;0.08;;;;;;;4.20;100.00;99917.31;5078468;28;20567;-53
2021/12/05 10:55:41;;;;;;;3.88;1.23;;;;;;;4.21;100.00;99916.31;5070030;28;20532;-55
2021/12/05 10:58:06;;;;;;;0.40;0.00;;;;;;;4.22;100.00;99925.88;5075365;28;20119;-58
2021/12/05 11:00:32;;;;;;;0.88;0.10;;;;;;;4.25;100.00;99921.09;5075885;28;20028;-50
2021/12/05 11:03:19;;;;;;;3.83;0.93;;;;;;;4.26;100.00;99927.16;5078088;28;20034;-57
2021/12/05 11:05:46;;;;;;;0.88;0.10;;;;;;;4.26;100.00;99932.41;5079243;28;20032;-54
2021/12/05 11:08:54;;;;;;;0.43;0.20;;;;;;;4.30;100.00;99937.16;5073484;28;20024;-56
2021/12/05 11:11:20;;;;;;;3.92;1.08;;;;;;;4.30;100.00;99931.09;4976134;28;20065;-54
2021/12/05 11:13:46;;;;;;;2.45;0.00;;;;;;;4.30;100.00;99954.72;4976674;28;20181;-56
2021/12/05 11:16:50;;;;;;;0.47;0.10;;;;;;;4.33;100.00;99946.53;5023942;28;20040;-54
2021/12/05 11:19:42;;;;;;;4.38;1.48;;;;;;;4.29;100.00;99942.59;4996762;28;20034;-54
2021/12/05 11:22:16;;;;;;;0.50;0.20;;;;;;;4.28;100.00;99951.44;4988170;28;20683;-59
2021/12/05 11:25:10;;;;;;;3.50;0.25;;;;;;;4.23;100.00;99956.34;5044004;28;20044;-56
2021/12/05 11:27:41;;;;;;;0.88;0.20;;;;;;;4.15;100.00;99952.72;5076487;28;20335;-55
2021/12/05 11:30:10;;;;;;;1.88;0.38;;;;;;;4.13;100.00;99952.09;5059390;28;20626;-57
2021/12/05 11:32:58;;;;;;;0.47;0.20;;;;;;;4.17;100.00;99970.94;5075542;28;20039;-57
2021/12/05 11:35:28;;;;;;;7.05;0.52;;;;;;;4.19;100.00;99958.50;5068694;28;20032;-56
2021/12/05 11:37:54;;;;;;;2.97;1.38;;;;;;;4.22;100.00;99952.09;5072967;28;20560;-56
2021/12/05 11:40:21;;;;;;;4.45;0.30;;;;;;;4.24;100.00;99960.63;5076550;28;20042;-56
2021/12/05 11:43:07;;;;;;;0.08;0.00;;;;;;;4.30;100.00;99963.41;5084229;28;20039;-55
2021/12/05 11:45:51;;;;;;;0.95;0.32;;;;;;;4.37;100.00;99967.03;5081186;28;20062;-58
2021/12/05 11:48:21;;;;;;;5.38;0.40;;;;;;;4.40;100.00;99965.06;5057774;28;20028;-53
2021/12/05 11:50:47;;;;;;;3.63;0.20;;;;;;;4.37;100.00;99966.22;5082664;28;20036;-55
2021/12/05 11:53:13;;;;;;;0.93;0.05;;;;;;;4.37;100.00;99976.72;5079257;28;20062;-58
2021/12/05 11:55:38;;;;;;;7.00;0.73;;;;;;;4.17;100.00;99976.19;5081689;28;20051;-56
2021/12/05 11:58:18;;;;;;;0.82;0.17;;;;;;;4.05;100.00;99974.84;5081120;28;20073;-57
2021/12/05 12:00:44;;;;;;;0.82;0.10;;;;;;;4.06;100.00;99989.63;5076488;28;20051;-57
2021/12/05 12:03:12;;;;;;;0.50;0.20;;;;;;;4.08;100.00;100003.38;5075240;28;20101;-50
2021/12/05 12:05:38;;;;;;;2.05;0.10;;;;;;;4.08;100.00;100006.84;5078441;28;20032;-55
2021/12/05 12:08:12;;;;;;;3.50;0.20;;;;;;;4.00;100.00;99998.97;5080220;28;20047;-59
2021/12/05 12:10:52;;;;;;;1.20;0.00;;;;;;;3.97;100.00;100012.38;5080094;28;20115;-57
2021/12/05 12:13:23;;;;;;;2.20;0.17;;;;;;;3.99;100.00;100005.19;5077926;28;20043;-58
2021/12/05 12:15:58;;;;;;;0.55;0.55;;;;;;;4.11;100.00;100008.34;5079011;28;20039;-56
2021/12/05 12:18:30;;;;;;;0.65;0.10;;;;;;;4.21;100.00;100013.44;5081596;28;20047;-57
2021/12/05 12:21:04;;;;;;;2.03;0.00;;;;;;;4.24;100.00;100013.94;5066912;28;20051;-57
2021/12/05 12:23:31;;;;;;;4.60;0.20;;;;;;;4.08;100.00;100009.47;5075997;28;20032;-54
2021/12/05 12:26:00;;;;;;;3.13;0.82;;;;;;;4.01;100.00;100008.47;5079050;28;20459;-58
2021/12/05 12:28:28;;;;;;;1.75;0.68;;;;;;;4.01;100.00;100008.47;5076854;28;20028;-53
2021/12/05 12:31:15;;;;;;;7.80;0.30;;;;;;;4.01;100.00;100024.22;5076554;28;20037;-56
2021/12/05 12:33:46;;;;;;;6.40;0.60;;;;;;;4.02;100.00;100017.97;5076221;28;20031;-59
2021/12/05 12:36:13;;;;;;;2.97;0.20;;;;;;;4.04;100.00;100020.44;5076657;28;20036;-59
2021/12/05 12:38:42;;;;;;;0.00;0.00;;;;;;;4.05;100.00;100022.09;5082276;28;20028;-59
2021/12/05 12:41:18;;;;;;;0.50;0.00;;;;;;;4.06;100.00;100031.63;5060824;28;20178;-57
2021/12/05 12:43:54;;;;;;;3.60;0.65;;;;;;;4.11;100.00;100038.03;5081921;28;20043;-55
2021/12/05 12:46:25;;;;;;;0.82;0.10;;;;;;;4.00;100.00;100040.94;5076329;28;20092;-53
2021/12/05 12:49:14;;;;;;;;;;;;;;;3.94;100.00;100038.94;5070867;28;20040;-57
2021/12/05 12:51:45;;;;;;;0.57;0.17;;;;;;;3.98;100.00;100042.09;5065696;28;19920;-57
2021/12/05 12:54:17;;;;;;;0.82;0.35;;;;;;;3.99;100.00;100051.59;5078421;28;20408;-57
2021/12/05 12:56:59;;;;;;;0.45;0.20;;;;;;;4.05;100.00;100056.19;5073051;28;20055;-57
2021/12/05 12:59:29;;;;;;;1.63;0.35;;;;;;;4.06;100.00;100053.41;5074797;28;20061;-54
2021/12/05 13:02:26;;;;;;;0.40;0.22;;;;;;;4.04;100.00;100052.75;5078702;28;20029;-56
2021/12/05 13:10:30;;;;;;;3.40;0.38;;;;;;;3.89;100.00;100083.19;5079277;28;20062;-56
2021/12/05 13:13:17;;;;;;;2.55;0.30;;;;;;;3.87;100.00;100085.13;5082579;28;20032;-52
2021/12/05 13:15:44;;;;;;;1.45;0.52;;;;;;;3.83;100.00;100089.88;5081078;28;20027;-55
2021/12/05 13:18:10;;;;;;;0.93;0.30;;;;;;;3.84;100.00;100106.44;5078889;28;20417;-56
2021/12/05 13:20:41;;;;;;;1.90;0.93;;;;;;;3.79;100.00;100098.22;5084103;28;20024;-52
2021/12/05 13:23:25;;;;;;;7.85;1.77;;;;;;;3.77;100.00;100108.03;5070538;28;20177;-55
2021/12/05 13:26:39;;;;;;;1.00;0.32;;;;;;;3.72;100.00;100119.81;5077605;28;20120;-59
2021/12/05 13:29:25;;;;;;;1.05;0.25;;;;;;;3.75;100.00;100104.75;5054987;28;20134;-53
2021/12/05 13:32:04;;;;;;;2.10;0.98;;;;;;;3.76;100.00;100119.50;5078526;28;20032;-57
2021/12/05 13:34:35;;;;;;;0.65;0.65;;;;;;;3.78;100.00;100125.44;5073414;28;20068;-57
2021/12/05 13:37:06;;;;;;;0.52;0.52;;;;;;;3.75;100.00;100136.25;5076490;28;20051;-52
2021/12/05 13:39:55;;;;;;;0.10;0.10;;;;;;;3.77;100.00;100122.00;5080114;28;20540;-53
2021/12/05 13:42:27;;;;;;;3.13;0.47;;;;;;;3.86;100.00;100130.72;5081594;28;20591;-60
2021/12/05 13:45:03;;;;;;;0.90;0.90;;;;;;;3.96;100.00;100134.03;5058753;28;20613;-56
2021/12/05 13:47:43;;;;;;;6.18;1.10;;;;;;;4.06;100.00;100132.13;5074729;28;20036;-57
2021/12/05 13:52:56;;;;;;;4.07;0.55;;;;;;;4.21;100.00;100149.88;5077870;28;20040;-55
2021/12/05 13:55:43;;;;;;;0.77;0.30;;;;;;;4.16;100.00;100147.75;5068605;28;20028;-58
2021/12/05 13:58:24;;;;;;;1.02;0.93;;;;;;;4.17;100.00;100151.19;5066350;28;20052;-54
2021/12/05 14:00:56;;;;;;;0.32;0.32;;;;;;;4.17;100.00;100148.56;5068007;28;20452;-55
2021/12/05 14:03:49;;;;;;;6.57;0.55;;;;;;;4.17;100.00;100146.78;5080534;28;20032;-52
2021/12/05 14:06:24;;;;;;;1.65;0.40;;;;;;;4.15;100.00;100157.41;5079627;28;20035;-53
2021/12/05 14:08:52;;;;;;;3.15;0.40;;;;;;;4.14;100.00;100161.03;5081234;28;20036;-55
2021/12/05 14:11:19;;;;;;;0.40;0.20;;;;;;;4.10;100.00;100170.19;5079246;28;20068;-52
2021/12/05 14:13:44;;;;;;;0.80;0.43;;;;;;;4.09;100.00;100168.53;5080888;28;20030;-57
2021/12/05 14:16:10;;;;;;;1.02;0.40;;;;;;;4.12;100.00;100177.91;5081151;28;20032;-54
2021/12/05 14:18:35;;;;;;;1.75;0.30;;;;;;;4.13;100.00;100179.53;5073958;28;20033;-52
2021/12/05 14:21:11;;;;;;;1.15;0.30;;;;;;;4.09;100.00;100176.41;5071019;28;20062;-53
2021/12/05 14:23:36;;;;;;;5.57;0.70;;;;;;;4.02;100.00;100183.25;5064587;28;20040;-54
2021/12/05 14:26:27;;;;;;;0.20;0.20;;;;;;;3.98;100.00;100195.06;5076899;28;20366;-56
2021/12/05 14:29:05;;;;;;;0.70;0.45;;;;;;;3.94;100.00;100197.16;5073749;28;20036;-53
2021/12/05 14:31:36;;;;;;;1.80;0.43;;;;;;;3.92;100.00;100208.78;5066446;28;20036;-52
2021/12/05 14:34:03;;;;;;;0.75;0.40;;;;;;;3.89;100.00;100216.97;5077547;28;20564;-56
2021/12/05 14:36:32;;;;;;;0.95;0.20;;;;;;;3.86;100.00;100214.66;5070991;28;20358;-52
2021/12/05 14:39:23;;;;;;;1.02;0.45;;;;;;;3.86;100.00;100220.72;5069757;28;20388;-54
2021/12/05 14:41:52;;;;;;;2.00;0.32;;;;;;;3.82;100.00;100218.53;5074412;28;20036;-52
2021/12/05 14:44:18;;;;;;;1.33;0.63;;;;;;;3.82;100.00;100226.41;5080948;28;20028;-56
2021/12/05 14:46:48;;;;;;;3.83;0.50;;;;;;;3.84;100.00;100240.19;5079669;28;20488;-52
2021/12/05 14:49:14;;;;;;;1.70;0.25;;;;;;;3.84;100.00;100248.88;5076535;28;20067;-51
2021/12/05 14:51:42;;;;;;;5.00;2.42;;;;;;;3.81;100.00;100243.13;5072982;28;20445;-54
2021/12/05 14:54:09;;;;;;;1.45;0.50;;;;;;;3.82;100.00;100255.25;5067274;28;20042;-54
2021/12/05 14:56:37;;;;;;;1.27;0.88;;;;;;;3.83;100.00;100262.16;5078735;28;20541;-56
2021/12/05 14:59:12;;;;;;;2.80;0.77;;;;;;;3.84;100.00;100271.66;5080623;28;20106;-54
2021/12/05 15:01:42;;;;;;;1.40;0.50;;;;;;;3.88;100.00;100275.66;5082026;28;20024;-54
2021/12/05 15:04:09;;;;;;;2.42;0.38;;;;;;;3.92;100.00;100276.97;5052501;28;20093;-55
2021/12/05 15:06:42;;;;;;;0.35;0.35;;;;;;;3.93;100.00;100289.13;5082442;28;20047;-52
2021/12/05 15:09:18;;;;;;;2.13;0.40;;;;;;;3.93;100.00;100292.56;5068997;28;20246;-55
2021/12/05 15:11:57;;;;;;;0.70;0.60;;;;;;;4.00;100.00;100297.19;5077162;28;20024;-48
2021/12/05 15:14:23;;;;;;;0.52;0.30;;;;;;;4.03;100.00;100300.38;5078837;28;20515;-50
2021/12/05 15:16:58;;;;;;;0.82;0.35;;;;;;;4.06;100.00;100300.03;5082074;28;20480;-52
2021/12/05 15:19:24;;;;;;;0.20;0.20;;;;;;;4.05;100.00;100311.53;5066965;28;20102;-50
2021/12/05 15:21:50;;;;;;;9.18;0.57;;;;;;;4.08;100.00;100308.59;5074834;28;20530;-48
2021/12/05 15:24:17;;;;;;;6.70;1.02;;;;;;;4.08;100.00;100311.22;5077250;28;20067;-52
2021/12/05 15:26:43;;;;;;;0.60;0.52;;;;;;;4.07;100.00;100300.88;5070188;28;20047;-51
2021/12/05 15:29:09;;;;;;;0.57;0.57;;;;;;;4.05;100.00;100308.06;5080074;28;20107;-49
2021/12/05 15:31:37;;;;;;;1.55;0.63;;;;;;;4.06;100.00;100310.53;5052816;28;20024;-55
2021/12/05 15:34:20;;;;;;;2.65;0.50;;;;;;;4.04;100.00;100312.50;5068781;28;20043;-50
2021/12/05 15:36:47;;;;;;;2.60;0.55;;;;;;;4.02;100.00;100316.25;5074213;28;20135;-49
2021/12/05 15:39:19;;;;;;;3.50;0.30;;;;;;;4.01;100.00;100318.03;5075176;28;20524;-54
2021/12/05 15:41:46;;;;;;;0.55;0.30;;;;;;;3.98;100.00;100328.03;5073752;28;20061;-52
2021/12/05 15:44:41;;;;;;;0.68;0.68;;;;;;;3.92;100.00;100325.03;5051873;28;20079;-51
2021/12/05 15:47:15;;;;;;;0.68;0.50;;;;;;;3.92;100.00;100324.19;5077408;28;20044;-50
2021/12/05 15:49:51;;;;;;;1.15;0.70;;;;;;;3.90;100.00;100326.97;5077898;28;20052;-51
2021/12/05 15:52:20;;;;;;;1.17;0.50;;;;;;;3.95;100.00;100329.16;5075927;28;20508;-53
2021/12/05 15:54:45;;;;;;;2.85;0.75;;;;;;;3.96;100.00;100341.28;5076176;28;20033;-53
2021/12/05 15:57:17;;;;;;;0.90;0.75;;;;;;;4.02;100.00;100340.66;5076091;28;20024;-54
2021/12/05 15:59:46;;;;;;;6.85;1.25;;;;;;;4.00;100.00;100344.41;5072670;28;20823;-48
2021/12/05 16:02:11;;;;;;;1.85;0.90;;;;;;;4.00;100.00;100354.91;5074099;28;20317;-52
2021/12/05 16:04:39;;;;;;;2.63;0.30;;;;;;;4.05;100.00;100356.13;5075026;28;20407;-53
2021/12/05 16:07:10;;;;;;;1.35;0.22;;;;;;;4.13;100.00;100357.97;5081179;28;20028;-51
2021/12/05 16:09:37;;;;;;;4.57;0.70;;;;;;;4.16;100.00;100368.19;5067807;28;20442;-51
2021/12/05 16:12:15;;;;;;;8.23;1.92;;;;;;;4.15;100.00;100362.09;5076882;28;20465;-55
2021/12/05 16:14:43;;;;;;;5.55;1.73;;;;;;;4.10;100.00;100374.03;5074884;28;20054;-48
2021/12/05 16:17:19;;;;;;;6.25;1.33;;;;;;;4.11;100.00;100379.13;5077038;28;20028;-54
2021/12/05 16:20:01;;;;;;;1.83;1.13;;;;;;;4.19;100.00;100385.44;5077351;28;20079;-54
2021/12/05 16:22:26;;;;;;;;;;;;;;;4.22;100.00;100379.88;5077905;28;20042;-56
2021/12/05 16:24:52;;;;;;;1.00;0.43;;;;;;;4.22;100.00;100388.56;5074125;28;19920;-50
2021/12/05 16:27:17;;;;;;;1.40;1.08;;;;;;;4.20;100.00;100397.56;5081606;28;20484;-50
2021/12/05 16:29:43;;;;;;;5.78;1.35;;;;;;;4.24;100.00;100401.56;5081296;28;20024;-51
2021/12/05 16:32:08;;;;;;;1.75;1.20;;;;;;;4.23;100.00;100405.13;5058389;28;20032;-53
2021/12/05 16:34:37;;;;;;;2.70;0.52;;;;;;;4.21;100.00;100412.31;5083703;28;20156;-51
2021/12/05 16:37:04;;;;;;;3.17;0.65;;;;;;;4.18;100.00;100418.69;5075398;28;20039;-50
2021/12/05 16:39:34;;;;;;;2.78;0.90;;;;;;;4.19;100.00;100430.88;5083121;28;20028;-52
2021/12/05 16:42:07;;;;;;;2.08;0.68;;;;;;;4.20;100.00;100434.31;5082349;28;20037;-54
2021/12/05 16:44:37;;;;;;;0.75;0.47;;;;;;;4.14;100.00;100449.69;5083474;28;20595;-49
2021/12/05 16:47:08;;;;;;;7.65;1.35;;;;;;;4.13;100.00;100444.56;5083232;28;20032;-51
2021/12/05 16:49:38;;;;;;;1.35;0.73;;;;;;;4.11;100.00;100444.72;5081135;28;20115;-52
2021/12/05 16:52:08;;;;;;;1.13;0.60;;;;;;;4.08;100.00;100450.28;5076430;28;20064;-50
2021/12/05 16:54:44;;;;;;;0.55;0.50;;;;;;;4.04;100.00;100446.31;5079167;28;20028;-53
2021/12/05 16:57:13;;;;;;;1.40;0.45;;;;;;;4.04;100.00;100448.94;5078098;28;20024;-51
2021/12/05 16:59:44;;;;;;;1.33;0.43;;;;;;;4.01;100.00;100464.97;5053524;28;20024;-50
2021/12/05 17:02:18;;;;;;;3.20;0.93;;;;;;;3.99;100.00;100464.28;5075629;28;20035;-51
2021/12/05 17:05:12;;;;;;;1.02;0.95;;;;;;;3.99;100.00;100469.53;5078968;28;20396;-59
2021/12/05 17:07:47;;;;;;;1.50;1.02;;;;;;;4.03;100.00;100473.53;5065830;28;20624;-51
2021/12/05 17:10:21;;;;;;;2.15;1.88;;;;;;;4.03;100.00;100484.03;5078466;28;20036;-49
2021/12/05 17:13:05;;;;;;;4.05;1.58;;;;;;;4.02;100.00;100478.91;5071811;28;20995;-48
2021/12/05 17:15:32;;;;;;;2.08;0.85;;;;;;;4.03;100.00;100501.56;5080117;28;20043;-59
2021/12/05 17:18:03;;;;;;;1.50;0.68;;;;;;;4.08;100.00;100501.91;5074125;28;20039;-52
2021/12/05 17:20:36;;;;;;;3.00;0.68;;;;;;;4.07;100.00;100502.91;5079695;28;20114;-51
2021/12/05 17:23:30;;;;;;;1.60;0.68;;;;;;;4.07;100.00;100511.59;5081569;28;20040;-53